sensor_id;sensor_type;location;lat;lon;timestamp;P1;durP1;ratioP1;P2;durP2;ratioP2
48861;SDS011;34681;49.188;-0.374;2023-01-29T00:01:01;2.97;;;2.20;;
48861;SDS011;34681;49.188;-0.374;2023-01-29T00:03:28;1.93;;;1.83;;
48861;SDS011;34681;49.188;-0.374;2023-01-29T00:05:53;1.87;;;1.77;;
48861;SDS011;34681;49.188;-0.374;2023-01-29T00:08:18;3.83;;;2.00;;
48861;SDS011;34681;49.188;-0.374;2023-01-29T00:10:44;1.77;;;1.67;;
48861;SDS011;34681;49.188;-0.374;2023-01-29T00:13:09;2.60;;;2.40;;
48861;SDS011;34681;49.188;-0.374;2023-01-29T00:15:34;4.30;;;2.67;;
48861;SDS011;34681;49.188;-0.374;2023-01-29T00:18:00;3.13;;;2.57;;
48861;SDS011;34681;49.188;-0.374;2023-01-29T00:20:25;3.50;;;2.90;;
48861;SDS011;34681;49.188;-0.374;2023-01-29T00:22:50;2.50;;;2.30;;
48861;SDS011;34681;49.188;-0.374;2023-01-29T00:25:16;3.33;;;2.97;;
48861;SDS011;34681;49.188;-0.374;2023-01-29T00:27:41;3.00;;;2.57;;
48861;SDS011;34681;49.188;-0.374;2023-01-29T00:30:07;3.63;;;3.33;;
48861;SDS011;34681;49.188;-0.374;2023-01-29T00:32:36;3.60;;;3.30;;
48861;SDS011;34681;49.188;-0.374;2023-01-29T00:35:02;5.40;;;2.93;;
48861;SDS011;34681;49.188;-0.374;2023-01-29T00:37:28;2.93;;;2.53;;
48861;SDS011;34681;49.188;-0.374;2023-01-29T00:39:53;2.50;;;2.30;;
48861;SDS011;34681;49.188;-0.374;2023-01-29T00:42:19;3.80;;;3.27;;
48861;SDS011;34681;49.188;-0.374;2023-01-29T00:45:03;3.83;;;2.50;;
48861;SDS011;34681;49.188;-0.374;2023-01-29T00:47:28;2.80;;;2.57;;
48861;SDS011;34681;49.188;-0.374;2023-01-29T00:50:10;2.73;;;2.53;;
48861;SDS011;34681;49.188;-0.374;2023-01-29T00:52:36;2.03;;;1.90;;
48861;SDS011;34681;49.188;-0.374;2023-01-29T00:55:03;3.00;;;2.20;;
48861;SDS011;34681;49.188;-0.374;2023-01-29T00:57:31;2.40;;;2.20;;
48861;SDS011;34681;49.188;-0.374;2023-01-29T00:59:58;2.27;;;2.07;;
48861;SDS011;34681;49.188;-0.374;2023-01-29T01:02:23;2.90;;;2.40;;
48861;SDS011;34681;49.188;-0.374;2023-01-29T01:05:08;3.93;;;2.07;;
48861;SDS011;34681;49.188;-0.374;2023-01-29T01:07:38;2.27;;;2.07;;
48861;SDS011;34681;49.188;-0.374;2023-01-29T01:10:06;4.30;;;3.10;;
48861;SDS011;34681;49.188;-0.374;2023-01-29T01:12:53;2.90;;;2.10;;
48861;SDS011;34681;49.188;-0.374;2023-01-29T01:15:27;3.20;;;1.80;;
48861;SDS011;34681;49.188;-0.374;2023-01-29T01:17:59;2.33;;;2.13;;
48861;SDS011;34681;49.188;-0.374;2023-01-29T01:20:26;1.70;;;1.60;;
48861;SDS011;34681;49.188;-0.374;2023-01-29T01:22:53;2.13;;;2.00;;
48861;SDS011;34681;49.188;-0.374;2023-01-29T01:25:19;1.70;;;1.60;;
48861;SDS011;34681;49.188;-0.374;2023-01-29T01:27:45;4.53;;;2.07;;
48861;SDS011;34681;49.188;-0.374;2023-01-29T01:30:12;2.70;;;1.50;;
48861;SDS011;34681;49.188;-0.374;2023-01-29T01:32:39;1.80;;;1.70;;
48861;SDS011;34681;49.188;-0.374;2023-01-29T01:35:05;2.13;;;1.93;;
48861;SDS011;34681;49.188;-0.374;2023-01-29T01:37:31;2.13;;;2.03;;
48861;SDS011;34681;49.188;-0.374;2023-01-29T01:39:57;2.97;;;2.60;;
48861;SDS011;34681;49.188;-0.374;2023-01-29T01:42:29;2.57;;;2.37;;
48861;SDS011;34681;49.188;-0.374;2023-01-29T01:44:56;2.40;;;2.30;;
48861;SDS011;34681;49.188;-0.374;2023-01-29T01:47:31;3.47;;;2.60;;
48861;SDS011;34681;49.188;-0.374;2023-01-29T01:50:09;2.00;;;1.90;;
48861;SDS011;34681;49.188;-0.374;2023-01-29T01:52:46;2.10;;;2.00;;
48861;SDS011;34681;49.188;-0.374;2023-01-29T01:55:16;2.83;;;2.10;;
48861;SDS011;34681;49.188;-0.374;2023-01-29T01:57:46;4.13;;;1.77;;
48861;SDS011;34681;49.188;-0.374;2023-01-29T02:00:15;1.77;;;1.67;;
48861;SDS011;34681;49.188;-0.374;2023-01-29T02:02:43;3.63;;;1.60;;
48861;SDS011;34681;49.188;-0.374;2023-01-29T02:05:32;4.10;;;1.50;;
48861;SDS011;34681;49.188;-0.374;2023-01-29T02:08:21;2.70;;;1.63;;
48861;SDS011;34681;49.188;-0.374;2023-01-29T02:11:11;3.10;;;1.80;;
48861;SDS011;34681;49.188;-0.374;2023-01-29T02:13:37;3.10;;;1.80;;
48861;SDS011;34681;49.188;-0.374;2023-01-29T02:16:02;2.70;;;2.10;;
48861;SDS011;34681;49.188;-0.374;2023-01-29T02:18:28;2.73;;;1.67;;
48861;SDS011;34681;49.188;-0.374;2023-01-29T02:21:04;2.30;;;1.70;;
48861;SDS011;34681;49.188;-0.374;2023-01-29T02:26:24;1.77;;;1.67;;
48861;SDS011;34681;49.188;-0.374;2023-01-29T02:28:58;1.60;;;1.50;;
48861;SDS011;34681;49.188;-0.374;2023-01-29T02:31:48;2.30;;;2.10;;
48861;SDS011;34681;49.188;-0.374;2023-01-29T02:34:32;2.93;;;2.40;;
48861;SDS011;34681;49.188;-0.374;2023-01-29T02:37:24;2.97;;;2.73;;
48861;SDS011;34681;49.188;-0.374;2023-01-29T02:40:04;3.10;;;2.10;;
48861;SDS011;34681;49.188;-0.374;2023-01-29T02:42:43;4.60;;;1.97;;
48861;SDS011;34681;49.188;-0.374;2023-01-29T02:45:40;1.90;;;1.80;;
48861;SDS011;34681;49.188;-0.374;2023-01-29T02:48:21;4.93;;;1.70;;
48861;SDS011;34681;49.188;-0.374;2023-01-29T02:50:52;3.47;;;1.80;;
48861;SDS011;34681;49.188;-0.374;2023-01-29T02:53:26;3.20;;;2.97;;
48861;SDS011;34681;49.188;-0.374;2023-01-29T02:56:06;2.70;;;2.50;;
48861;SDS011;34681;49.188;-0.374;2023-01-29T02:58:43;3.53;;;3.23;;
48861;SDS011;34681;49.188;-0.374;2023-01-29T03:01:19;3.23;;;2.93;;
48861;SDS011;34681;49.188;-0.374;2023-01-29T03:03:54;3.27;;;2.70;;
48861;SDS011;34681;49.188;-0.374;2023-01-29T03:06:29;3.63;;;2.73;;
48861;SDS011;34681;49.188;-0.374;2023-01-29T03:09:09;3.00;;;2.70;;
48861;SDS011;34681;49.188;-0.374;2023-01-29T03:11:41;3.07;;;2.40;;
48861;SDS011;34681;49.188;-0.374;2023-01-29T03:14:18;2.60;;;2.40;;
48861;SDS011;34681;49.188;-0.374;2023-01-29T03:21:50;3.53;;;3.10;;
48861;SDS011;34681;49.188;-0.374;2023-01-29T03:27:27;2.60;;;2.37;;
48861;SDS011;34681;49.188;-0.374;2023-01-29T03:30:19;4.63;;;2.77;;
48861;SDS011;34681;49.188;-0.374;2023-01-29T03:33:05;3.83;;;3.00;;
48861;SDS011;34681;49.188;-0.374;2023-01-29T03:35:35;3.00;;;2.80;;
48861;SDS011;34681;49.188;-0.374;2023-01-29T03:38:06;4.30;;;3.17;;
48861;SDS011;34681;49.188;-0.374;2023-01-29T03:40:43;2.70;;;2.60;;
48861;SDS011;34681;49.188;-0.374;2023-01-29T03:43:24;5.43;;;2.97;;
48861;SDS011;34681;49.188;-0.374;2023-01-29T03:45:59;2.87;;;2.77;;
48861;SDS011;34681;49.188;-0.374;2023-01-29T03:59:30;4.27;;;4.07;;
48861;SDS011;34681;49.188;-0.374;2023-01-29T04:01:57;5.80;;;4.30;;
48861;SDS011;34681;49.188;-0.374;2023-01-29T04:04:28;4.20;;;3.90;;
48861;SDS011;34681;49.188;-0.374;2023-01-29T04:06:59;4.63;;;4.30;;
48861;SDS011;34681;49.188;-0.374;2023-01-29T04:09:30;4.20;;;3.90;;
48861;SDS011;34681;49.188;-0.374;2023-01-29T04:12:06;5.27;;;4.77;;
48861;SDS011;34681;49.188;-0.374;2023-01-29T04:14:33;4.50;;;4.20;;
48861;SDS011;34681;49.188;-0.374;2023-01-29T04:17:02;5.13;;;4.63;;
48861;SDS011;34681;49.188;-0.374;2023-01-29T04:19:33;4.70;;;3.87;;
48861;SDS011;34681;49.188;-0.374;2023-01-29T04:22:01;5.47;;;4.30;;
48861;SDS011;34681;49.188;-0.374;2023-01-29T04:24:31;6.33;;;5.00;;
48861;SDS011;34681;49.188;-0.374;2023-01-29T04:29:56;4.40;;;4.10;;
48861;SDS011;34681;49.188;-0.374;2023-01-29T04:35:28;5.47;;;4.97;;
48861;SDS011;34681;49.188;-0.374;2023-01-29T04:38:11;4.83;;;4.43;;
48861;SDS011;34681;49.188;-0.374;2023-01-29T04:43:34;4.40;;;4.10;;
48861;SDS011;34681;49.188;-0.374;2023-01-29T04:46:13;4.93;;;4.40;;
48861;SDS011;34681;49.188;-0.374;2023-01-29T04:51:48;7.13;;;4.80;;
48861;SDS011;34681;49.188;-0.374;2023-01-29T04:59:35;7.20;;;5.43;;
48861;SDS011;34681;49.188;-0.374;2023-01-29T05:02:06;4.97;;;4.67;;
48861;SDS011;34681;49.188;-0.374;2023-01-29T05:04:35;5.60;;;4.73;;
48861;SDS011;34681;49.188;-0.374;2023-01-29T05:07:03;5.00;;;4.70;;
48861;SDS011;34681;49.188;-0.374;2023-01-29T05:09:32;6.57;;;5.00;;
48861;SDS011;34681;49.188;-0.374;2023-01-29T05:11:59;5.93;;;5.43;;
48861;SDS011;34681;49.188;-0.374;2023-01-29T05:14:25;6.27;;;5.77;;
48861;SDS011;34681;49.188;-0.374;2023-01-29T05:16:52;6.03;;;5.53;;
48861;SDS011;34681;49.188;-0.374;2023-01-29T05:19:21;7.60;;;7.00;;
48861;SDS011;34681;49.188;-0.374;2023-01-29T05:21:46;7.47;;;6.63;;
48861;SDS011;34681;49.188;-0.374;2023-01-29T05:24:18;8.30;;;7.60;;
48861;SDS011;34681;49.188;-0.374;2023-01-29T05:26:46;7.27;;;6.63;;
48861;SDS011;34681;49.188;-0.374;2023-01-29T05:29:32;7.20;;;6.60;;
48861;SDS011;34681;49.188;-0.374;2023-01-29T05:31:58;7.93;;;7.33;;
48861;SDS011;34681;49.188;-0.374;2023-01-29T05:34:23;7.73;;;7.03;;
48861;SDS011;34681;49.188;-0.374;2023-01-29T05:36:49;8.00;;;7.30;;
48861;SDS011;34681;49.188;-0.374;2023-01-29T05:39:15;8.43;;;7.73;;
48861;SDS011;34681;49.188;-0.374;2023-01-29T05:41:40;9.20;;;8.40;;
48861;SDS011;34681;49.188;-0.374;2023-01-29T05:44:06;11.37;;;8.33;;
48861;SDS011;34681;49.188;-0.374;2023-01-29T05:46:31;8.10;;;7.30;;
48861;SDS011;34681;49.188;-0.374;2023-01-29T05:48:56;9.50;;;8.70;;
48861;SDS011;34681;49.188;-0.374;2023-01-29T05:51:22;9.80;;;7.83;;
48861;SDS011;34681;49.188;-0.374;2023-01-29T05:53:47;7.93;;;7.33;;
48861;SDS011;34681;49.188;-0.374;2023-01-29T05:56:12;8.47;;;7.80;;
48861;SDS011;34681;49.188;-0.374;2023-01-29T05:58:38;10.33;;;7.97;;
48861;SDS011;34681;49.188;-0.374;2023-01-29T06:01:22;9.57;;;8.77;;
48861;SDS011;34681;49.188;-0.374;2023-01-29T06:03:49;9.13;;;8.33;;
48861;SDS011;34681;49.188;-0.374;2023-01-29T06:06:14;8.73;;;8.03;;
48861;SDS011;34681;49.188;-0.374;2023-01-29T06:08:40;8.60;;;7.90;;
48861;SDS011;34681;49.188;-0.374;2023-01-29T06:11:06;9.23;;;8.53;;
48861;SDS011;34681;49.188;-0.374;2023-01-29T06:13:33;9.03;;;8.23;;
48861;SDS011;34681;49.188;-0.374;2023-01-29T06:15:59;10.43;;;9.53;;
48861;SDS011;34681;49.188;-0.374;2023-01-29T06:18:24;8.83;;;8.13;;
48861;SDS011;34681;49.188;-0.374;2023-01-29T06:20:49;10.07;;;9.27;;
48861;SDS011;34681;49.188;-0.374;2023-01-29T06:23:15;10.77;;;9.87;;
48861;SDS011;34681;49.188;-0.374;2023-01-29T06:25:40;10.90;;;9.73;;
48861;SDS011;34681;49.188;-0.374;2023-01-29T06:28:06;10.60;;;9.70;;
48861;SDS011;34681;49.188;-0.374;2023-01-29T06:30:31;12.87;;;11.70;;
48861;SDS011;34681;49.188;-0.374;2023-01-29T06:32:57;12.23;;;11.07;;
48861;SDS011;34681;49.188;-0.374;2023-01-29T06:35:23;12.97;;;11.67;;
48861;SDS011;34681;49.188;-0.374;2023-01-29T06:37:49;12.97;;;11.70;;
48861;SDS011;34681;49.188;-0.374;2023-01-29T06:40:14;10.53;;;9.53;;
48861;SDS011;34681;49.188;-0.374;2023-01-29T06:42:40;11.50;;;10.43;;
48861;SDS011;34681;49.188;-0.374;2023-01-29T06:45:05;10.90;;;9.90;;
48861;SDS011;34681;49.188;-0.374;2023-01-29T06:47:31;10.47;;;9.57;;
48861;SDS011;34681;49.188;-0.374;2023-01-29T06:49:56;11.30;;;10.40;;
48861;SDS011;34681;49.188;-0.374;2023-01-29T06:52:21;12.40;;;11.20;;
48861;SDS011;34681;49.188;-0.374;2023-01-29T06:54:49;11.80;;;10.80;;
48861;SDS011;34681;49.188;-0.374;2023-01-29T06:57:14;13.83;;;12.37;;
48861;SDS011;34681;49.188;-0.374;2023-01-29T06:59:39;10.10;;;9.20;;
48861;SDS011;34681;49.188;-0.374;2023-01-29T07:02:05;10.10;;;9.20;;
48861;SDS011;34681;49.188;-0.374;2023-01-29T07:04:30;10.53;;;8.63;;
48861;SDS011;34681;49.188;-0.374;2023-01-29T07:06:57;9.37;;;8.37;;
48861;SDS011;34681;49.188;-0.374;2023-01-29T07:09:23;9.40;;;8.60;;
48861;SDS011;34681;49.188;-0.374;2023-01-29T07:11:49;10.47;;;9.60;;
48861;SDS011;34681;49.188;-0.374;2023-01-29T07:14:14;8.27;;;7.47;;
48861;SDS011;34681;49.188;-0.374;2023-01-29T07:16:39;12.57;;;9.73;;
48861;SDS011;34681;49.188;-0.374;2023-01-29T07:19:05;9.07;;;8.40;;
48861;SDS011;34681;49.188;-0.374;2023-01-29T07:21:30;9.37;;;8.40;;
48861;SDS011;34681;49.188;-0.374;2023-01-29T07:23:55;10.00;;;9.20;;
48861;SDS011;34681;49.188;-0.374;2023-01-29T07:26:21;10.37;;;9.47;;
48861;SDS011;34681;49.188;-0.374;2023-01-29T07:28:46;12.47;;;11.37;;
48861;SDS011;34681;49.188;-0.374;2023-01-29T07:31:12;13.30;;;12.10;;
48861;SDS011;34681;49.188;-0.374;2023-01-29T07:33:39;13.60;;;12.17;;
48861;SDS011;34681;49.188;-0.374;2023-01-29T07:36:07;14.40;;;13.10;;
48861;SDS011;34681;49.188;-0.374;2023-01-29T07:38:34;13.13;;;12.03;;
48861;SDS011;34681;49.188;-0.374;2023-01-29T07:40:59;13.67;;;12.27;;
48861;SDS011;34681;49.188;-0.374;2023-01-29T07:43:24;13.73;;;12.47;;
48861;SDS011;34681;49.188;-0.374;2023-01-29T07:45:50;12.03;;;11.03;;
48861;SDS011;34681;49.188;-0.374;2023-01-29T07:48:16;12.20;;;11.20;;
48861;SDS011;34681;49.188;-0.374;2023-01-29T07:50:41;11.70;;;10.70;;
48861;SDS011;34681;49.188;-0.374;2023-01-29T07:53:10;10.90;;;10.00;;
48861;SDS011;34681;49.188;-0.374;2023-01-29T07:55:37;14.70;;;13.27;;
48861;SDS011;34681;49.188;-0.374;2023-01-29T07:58:02;16.53;;;14.83;;
48861;SDS011;34681;49.188;-0.374;2023-01-29T08:00:28;23.00;;;16.90;;
48861;SDS011;34681;49.188;-0.374;2023-01-29T08:03:02;35.00;;;25.40;;
48861;SDS011;34681;49.188;-0.374;2023-01-29T08:05:31;38.30;;;26.80;;
48861;SDS011;34681;49.188;-0.374;2023-01-29T08:07:57;40.20;;;28.80;;
48861;SDS011;34681;49.188;-0.374;2023-01-29T08:10:22;36.70;;;26.20;;
48861;SDS011;34681;49.188;-0.374;2023-01-29T08:12:52;35.57;;;26.47;;
48861;SDS011;34681;49.188;-0.374;2023-01-29T08:15:18;34.70;;;23.93;;
48861;SDS011;34681;49.188;-0.374;2023-01-29T08:17:44;29.50;;;22.03;;
48861;SDS011;34681;49.188;-0.374;2023-01-29T08:20:09;26.83;;;20.80;;
48861;SDS011;34681;49.188;-0.374;2023-01-29T08:22:35;20.50;;;18.50;;
48861;SDS011;34681;49.188;-0.374;2023-01-29T08:25:00;19.30;;;17.43;;
48861;SDS011;34681;49.188;-0.374;2023-01-29T08:27:26;19.43;;;17.50;;
48861;SDS011;34681;49.188;-0.374;2023-01-29T08:29:51;19.70;;;16.07;;
48861;SDS011;34681;49.188;-0.374;2023-01-29T08:32:16;17.13;;;15.20;;
48861;SDS011;34681;49.188;-0.374;2023-01-29T08:34:42;20.00;;;17.90;;
48861;SDS011;34681;49.188;-0.374;2023-01-29T08:37:07;16.53;;;14.93;;
48861;SDS011;34681;49.188;-0.374;2023-01-29T08:39:32;31.87;;;22.90;;
48861;SDS011;34681;49.188;-0.374;2023-01-29T08:41:58;39.70;;;28.93;;
48861;SDS011;34681;49.188;-0.374;2023-01-29T08:44:23;36.60;;;25.70;;
48861;SDS011;34681;49.188;-0.374;2023-01-29T08:46:48;31.90;;;24.40;;
48861;SDS011;34681;49.188;-0.374;2023-01-29T08:49:13;21.90;;;18.80;;
48861;SDS011;34681;49.188;-0.374;2023-01-29T08:51:39;24.90;;;19.30;;
48861;SDS011;34681;49.188;-0.374;2023-01-29T08:54:04;28.80;;;22.30;;
48861;SDS011;34681;49.188;-0.374;2023-01-29T08:56:29;27.77;;;21.87;;
48861;SDS011;34681;49.188;-0.374;2023-01-29T08:58:55;31.90;;;23.20;;
48861;SDS011;34681;49.188;-0.374;2023-01-29T09:01:20;22.77;;;19.03;;
48861;SDS011;34681;49.188;-0.374;2023-01-29T09:03:45;20.67;;;18.03;;
48861;SDS011;34681;49.188;-0.374;2023-01-29T09:06:11;26.40;;;22.87;;
48861;SDS011;34681;49.188;-0.374;2023-01-29T09:08:38;28.57;;;23.30;;
48861;SDS011;34681;49.188;-0.374;2023-01-29T09:11:04;25.53;;;21.67;;
48861;SDS011;34681;49.188;-0.374;2023-01-29T09:13:29;25.10;;;22.50;;
48861;SDS011;34681;49.188;-0.374;2023-01-29T09:15:58;19.53;;;17.53;;
48861;SDS011;34681;49.188;-0.374;2023-01-29T09:18:24;17.70;;;16.07;;
48861;SDS011;34681;49.188;-0.374;2023-01-29T09:20:49;22.70;;;20.40;;
48861;SDS011;34681;49.188;-0.374;2023-01-29T09:23:15;19.90;;;18.13;;
48861;SDS011;34681;49.188;-0.374;2023-01-29T09:25:41;21.77;;;19.63;;
48861;SDS011;34681;49.188;-0.374;2023-01-29T09:28:07;22.67;;;20.47;;
48861;SDS011;34681;49.188;-0.374;2023-01-29T09:30:32;22.10;;;19.93;;
48861;SDS011;34681;49.188;-0.374;2023-01-29T09:33:01;22.00;;;19.80;;
48861;SDS011;34681;49.188;-0.374;2023-01-29T09:35:26;19.67;;;17.70;;
48861;SDS011;34681;49.188;-0.374;2023-01-29T09:37:52;17.30;;;15.60;;
48861;SDS011;34681;49.188;-0.374;2023-01-29T09:42:53;18.87;;;17.27;;
48861;SDS011;34681;49.188;-0.374;2023-01-29T09:45:22;16.70;;;15.30;;
48861;SDS011;34681;49.188;-0.374;2023-01-29T09:47:49;15.73;;;14.17;;
48861;SDS011;34681;49.188;-0.374;2023-01-29T09:50:37;14.93;;;13.63;;
48861;SDS011;34681;49.188;-0.374;2023-01-29T09:55:42;14.63;;;13.23;;
48861;SDS011;34681;49.188;-0.374;2023-01-29T09:58:26;16.53;;;15.07;;
48861;SDS011;34681;49.188;-0.374;2023-01-29T10:03:58;15.77;;;14.20;;
48861;SDS011;34681;49.188;-0.374;2023-01-29T10:23:45;16.30;;;14.50;;
48861;SDS011;34681;49.188;-0.374;2023-01-29T10:26:14;14.77;;;13.37;;
48861;SDS011;34681;49.188;-0.374;2023-01-29T10:28:43;14.23;;;13.03;;
48861;SDS011;34681;49.188;-0.374;2023-01-29T10:31:28;13.77;;;12.57;;
48861;SDS011;34681;49.188;-0.374;2023-01-29T10:34:05;14.83;;;13.63;;
48861;SDS011;34681;49.188;-0.374;2023-01-29T10:39:20;15.60;;;14.13;;
48861;SDS011;34681;49.188;-0.374;2023-01-29T10:42:33;14.83;;;13.60;;
48861;SDS011;34681;49.188;-0.374;2023-01-29T11:00:44;14.90;;;13.70;;
48861;SDS011;34681;49.188;-0.374;2023-01-29T11:03:17;14.87;;;13.47;;
48861;SDS011;34681;49.188;-0.374;2023-01-29T11:11:52;13.67;;;12.37;;
48861;SDS011;34681;49.188;-0.374;2023-01-29T11:16:50;13.97;;;12.67;;
48861;SDS011;34681;49.188;-0.374;2023-01-29T11:19:16;14.00;;;12.70;;
48861;SDS011;34681;49.188;-0.374;2023-01-29T11:24:23;16.73;;;14.00;;
48861;SDS011;34681;49.188;-0.374;2023-01-29T11:26:49;16.57;;;14.80;;
48861;SDS011;34681;49.188;-0.374;2023-01-29T11:31:54;13.47;;;12.33;;
48861;SDS011;34681;49.188;-0.374;2023-01-29T11:34:22;14.67;;;13.20;;
48861;SDS011;34681;49.188;-0.374;2023-01-29T11:36:57;15.63;;;14.20;;
48861;SDS011;34681;49.188;-0.374;2023-01-29T11:39:29;13.97;;;12.70;;
48861;SDS011;34681;49.188;-0.374;2023-01-29T11:42:00;13.73;;;12.43;;
48861;SDS011;34681;49.188;-0.374;2023-01-29T11:49:38;12.33;;;11.23;;
48861;SDS011;34681;49.188;-0.374;2023-01-29T11:52:08;13.63;;;12.33;;
48861;SDS011;34681;49.188;-0.374;2023-01-29T11:57:51;17.37;;;15.40;;
48861;SDS011;34681;49.188;-0.374;2023-01-29T12:00:24;13.40;;;12.17;;
48861;SDS011;34681;49.188;-0.374;2023-01-29T12:05:26;12.23;;;11.13;;
48861;SDS011;34681;49.188;-0.374;2023-01-29T12:07:52;12.53;;;11.23;;
48861;SDS011;34681;49.188;-0.374;2023-01-29T12:16:55;10.83;;;9.73;;
48861;SDS011;34681;49.188;-0.374;2023-01-29T12:21:31;13.00;;;12.00;;
48861;SDS011;34681;49.188;-0.374;2023-01-29T12:27:30;11.63;;;10.53;;
48861;SDS011;34681;49.188;-0.374;2023-01-29T12:30:11;11.40;;;10.50;;
48861;SDS011;34681;49.188;-0.374;2023-01-29T12:35:29;13.27;;;11.93;;
48861;SDS011;34681;49.188;-0.374;2023-01-29T12:38:39;12.97;;;11.87;;
48861;SDS011;34681;49.188;-0.374;2023-01-29T12:43:23;13.67;;;12.47;;
48861;SDS011;34681;49.188;-0.374;2023-01-29T12:45:55;14.63;;;13.23;;
48861;SDS011;34681;49.188;-0.374;2023-01-29T12:48:25;13.93;;;12.73;;
48861;SDS011;34681;49.188;-0.374;2023-01-29T12:50:54;14.70;;;13.33;;
48861;SDS011;34681;49.188;-0.374;2023-01-29T12:56:19;14.80;;;13.30;;
48861;SDS011;34681;49.188;-0.374;2023-01-29T12:58:51;14.40;;;12.77;;
48861;SDS011;34681;49.188;-0.374;2023-01-29T13:06:14;15.60;;;14.20;;
48861;SDS011;34681;49.188;-0.374;2023-01-29T13:08:44;14.80;;;13.37;;
48861;SDS011;34681;49.188;-0.374;2023-01-29T13:13:58;15.67;;;14.17;;
48861;SDS011;34681;49.188;-0.374;2023-01-29T13:16:29;15.40;;;14.00;;
48861;SDS011;34681;49.188;-0.374;2023-01-29T13:19:02;17.30;;;15.67;;
48861;SDS011;34681;49.188;-0.374;2023-01-29T13:21:34;18.53;;;16.20;;
48861;SDS011;34681;49.188;-0.374;2023-01-29T13:24:04;25.90;;;19.60;;
48861;SDS011;34681;49.188;-0.374;2023-01-29T13:26:36;35.30;;;24.97;;
48861;SDS011;34681;49.188;-0.374;2023-01-29T13:29:03;29.63;;;21.60;;
48861;SDS011;34681;49.188;-0.374;2023-01-29T13:31:30;29.93;;;25.10;;
48861;SDS011;34681;49.188;-0.374;2023-01-29T13:36:30;25.53;;;21.33;;
48861;SDS011;34681;49.188;-0.374;2023-01-29T13:39:00;44.63;;;30.47;;
48861;SDS011;34681;49.188;-0.374;2023-01-29T13:41:32;34.10;;;26.23;;
48861;SDS011;34681;49.188;-0.374;2023-01-29T13:44:01;33.20;;;25.87;;
48861;SDS011;34681;49.188;-0.374;2023-01-29T13:46:28;27.20;;;21.30;;
48861;SDS011;34681;49.188;-0.374;2023-01-29T13:48:57;24.57;;;21.90;;
48861;SDS011;34681;49.188;-0.374;2023-01-29T13:51:29;20.03;;;18.13;;
48861;SDS011;34681;49.188;-0.374;2023-01-29T13:54:00;17.23;;;15.37;;
48861;SDS011;34681;49.188;-0.374;2023-01-29T13:58:56;17.43;;;15.63;;
48861;SDS011;34681;49.188;-0.374;2023-01-29T14:06:53;16.90;;;15.23;;
48861;SDS011;34681;49.188;-0.374;2023-01-29T14:12:03;17.03;;;15.30;;
48861;SDS011;34681;49.188;-0.374;2023-01-29T14:17:23;16.23;;;14.70;;
48861;SDS011;34681;49.188;-0.374;2023-01-29T14:19:52;14.57;;;13.07;;
48861;SDS011;34681;49.188;-0.374;2023-01-29T14:22:26;16.57;;;15.03;;
48861;SDS011;34681;49.188;-0.374;2023-01-29T14:25:03;17.33;;;15.20;;
48861;SDS011;34681;49.188;-0.374;2023-01-29T14:27:29;15.43;;;13.93;;
48861;SDS011;34681;49.188;-0.374;2023-01-29T14:30:05;14.77;;;13.37;;
48861;SDS011;34681;49.188;-0.374;2023-01-29T14:32:33;15.60;;;14.20;;
48861;SDS011;34681;49.188;-0.374;2023-01-29T14:35:17;14.83;;;13.30;;
48861;SDS011;34681;49.188;-0.374;2023-01-29T14:37:44;13.97;;;12.60;;
48861;SDS011;34681;49.188;-0.374;2023-01-29T14:40:14;15.83;;;14.23;;
48861;SDS011;34681;49.188;-0.374;2023-01-29T14:45:44;14.80;;;13.43;;
48861;SDS011;34681;49.188;-0.374;2023-01-29T14:53:05;14.50;;;13.20;;
48861;SDS011;34681;49.188;-0.374;2023-01-29T14:58:40;15.87;;;14.37;;
48861;SDS011;34681;49.188;-0.374;2023-01-29T15:01:22;16.07;;;14.63;;
48861;SDS011;34681;49.188;-0.374;2023-01-29T15:03:52;18.50;;;16.70;;
48861;SDS011;34681;49.188;-0.374;2023-01-29T15:06:43;17.07;;;15.37;;
48861;SDS011;34681;49.188;-0.374;2023-01-29T15:09:12;16.67;;;15.03;;
48861;SDS011;34681;49.188;-0.374;2023-01-29T15:11:49;16.27;;;14.77;;
48861;SDS011;34681;49.188;-0.374;2023-01-29T15:14:23;14.63;;;13.23;;
48861;SDS011;34681;49.188;-0.374;2023-01-29T15:20:04;17.90;;;16.03;;
48861;SDS011;34681;49.188;-0.374;2023-01-29T15:22:49;17.63;;;15.83;;
48861;SDS011;34681;49.188;-0.374;2023-01-29T15:25:15;18.57;;;16.73;;
48861;SDS011;34681;49.188;-0.374;2023-01-29T15:27:43;17.60;;;15.27;;
48861;SDS011;34681;49.188;-0.374;2023-01-29T15:30:13;18.93;;;17.03;;
48861;SDS011;34681;49.188;-0.374;2023-01-29T15:32:41;17.90;;;15.37;;
48861;SDS011;34681;49.188;-0.374;2023-01-29T15:35:49;17.53;;;15.93;;
48861;SDS011;34681;49.188;-0.374;2023-01-29T15:38:21;17.07;;;15.37;;
48861;SDS011;34681;49.188;-0.374;2023-01-29T15:40:54;17.00;;;15.50;;
48861;SDS011;34681;49.188;-0.374;2023-01-29T15:43:24;21.03;;;18.13;;
48861;SDS011;34681;49.188;-0.374;2023-01-29T15:45:52;16.23;;;14.73;;
48861;SDS011;34681;49.188;-0.374;2023-01-29T15:48:22;17.93;;;15.93;;
48861;SDS011;34681;49.188;-0.374;2023-01-29T15:50:55;18.17;;;16.47;;
48861;SDS011;34681;49.188;-0.374;2023-01-29T15:53:22;17.37;;;15.30;;
48861;SDS011;34681;49.188;-0.374;2023-01-29T15:55:54;16.70;;;14.57;;
48861;SDS011;34681;49.188;-0.374;2023-01-29T15:58:27;17.30;;;13.80;;
48861;SDS011;34681;49.188;-0.374;2023-01-29T16:00:54;18.87;;;16.83;;
48861;SDS011;34681;49.188;-0.374;2023-01-29T16:03:22;17.90;;;15.60;;
48861;SDS011;34681;49.188;-0.374;2023-01-29T16:05:50;16.33;;;14.83;;
48861;SDS011;34681;49.188;-0.374;2023-01-29T16:08:16;17.90;;;14.40;;
48861;SDS011;34681;49.188;-0.374;2023-01-29T16:10:51;16.20;;;14.60;;
48861;SDS011;34681;49.188;-0.374;2023-01-29T16:13:20;16.57;;;15.00;;
48861;SDS011;34681;49.188;-0.374;2023-01-29T16:18:23;18.57;;;15.70;;
48861;SDS011;34681;49.188;-0.374;2023-01-29T16:20:53;17.40;;;15.80;;
48861;SDS011;34681;49.188;-0.374;2023-01-29T16:23:22;16.93;;;15.23;;
48861;SDS011;34681;49.188;-0.374;2023-01-29T16:25:51;18.03;;;16.07;;
48861;SDS011;34681;49.188;-0.374;2023-01-29T16:28:19;19.83;;;17.60;;
48861;SDS011;34681;49.188;-0.374;2023-01-29T16:30:45;18.43;;;16.47;;
48861;SDS011;34681;49.188;-0.374;2023-01-29T16:33:11;18.47;;;16.67;;
48861;SDS011;34681;49.188;-0.374;2023-01-29T16:35:39;21.63;;;17.90;;
48861;SDS011;34681;49.188;-0.374;2023-01-29T16:38:06;21.27;;;17.10;;
48861;SDS011;34681;49.188;-0.374;2023-01-29T16:41:03;20.80;;;18.50;;
48861;SDS011;34681;49.188;-0.374;2023-01-29T16:43:45;23.90;;;17.90;;
48861;SDS011;34681;49.188;-0.374;2023-01-29T16:48:50;21.53;;;19.30;;
48861;SDS011;34681;49.188;-0.374;2023-01-29T16:54:13;18.17;;;16.30;;
48861;SDS011;34681;49.188;-0.374;2023-01-29T16:56:46;21.17;;;18.73;;
48861;SDS011;34681;49.188;-0.374;2023-01-29T16:59:17;20.97;;;18.77;;
48861;SDS011;34681;49.188;-0.374;2023-01-29T17:01:53;19.73;;;16.47;;
48861;SDS011;34681;49.188;-0.374;2023-01-29T17:04:19;23.20;;;19.87;;
48861;SDS011;34681;49.188;-0.374;2023-01-29T17:06:49;30.83;;;24.07;;
48861;SDS011;34681;49.188;-0.374;2023-01-29T17:09:23;30.33;;;24.57;;
48861;SDS011;34681;49.188;-0.374;2023-01-29T17:12:02;30.77;;;24.73;;
48861;SDS011;34681;49.188;-0.374;2023-01-29T17:14:31;23.43;;;20.63;;
48861;SDS011;34681;49.188;-0.374;2023-01-29T17:17:04;24.50;;;22.00;;
48861;SDS011;34681;49.188;-0.374;2023-01-29T17:19:36;28.83;;;24.70;;
48861;SDS011;34681;49.188;-0.374;2023-01-29T17:22:02;26.50;;;22.93;;
48861;SDS011;34681;49.188;-0.374;2023-01-29T17:24:31;26.10;;;23.30;;
48861;SDS011;34681;49.188;-0.374;2023-01-29T17:26:56;21.87;;;19.57;;
48861;SDS011;34681;49.188;-0.374;2023-01-29T17:29:23;22.67;;;20.30;;